createdAt,value
2022-12-16T00:01:53.822Z,-1.80
2022-12-16T00:04:27.384Z,-1.70
2022-12-16T00:06:55.192Z,-1.50
2022-12-16T00:09:23.024Z,-1.50
2022-12-16T00:11:49.685Z,-1.40
2022-12-16T00:14:22.184Z,-1.40
2022-12-16T00:16:49.119Z,-1.60
2022-12-16T00:19:16.148Z,-1.50
2022-12-16T00:21:42.839Z,-1.40
2022-12-16T00:24:15.262Z,-1.30
2022-12-16T00:26:45.172Z,-1.40
2022-12-16T00:29:13.866Z,-1.40
2022-12-16T00:31:48.067Z,-1.50
2022-12-16T00:34:18.297Z,-1.40
2022-12-16T00:36:53.335Z,-1.40
2022-12-16T00:39:30.173Z,-1.40
2022-12-16T00:41:58.079Z,-1.50
2022-12-16T00:44:25.944Z,-1.40
2022-12-16T00:46:54.599Z,-1.30
2022-12-16T00:49:40.139Z,-1.50
2022-12-16T00:52:07.131Z,-1.70
2022-12-16T00:54:35.010Z,-2.20
2022-12-16T00:57:03.730Z,-2.30
2022-12-16T00:59:48.871Z,-2.10
2022-12-16T01:02:18.877Z,-1.70
2022-12-16T01:04:53.722Z,-1.30
2022-12-16T01:07:22.893Z,-1.10
2022-12-16T01:09:57.834Z,-1.00
2022-12-16T01:12:35.479Z,-1.10
2022-12-16T01:15:18.977Z,-1.30
2022-12-16T01:17:53.029Z,-1.20
2022-12-16T01:20:29.046Z,-1.20
2022-12-16T01:22:58.993Z,-1.10
2022-12-16T01:25:32.999Z,-1.20
2022-12-16T01:28:18.542Z,-1.40
2022-12-16T01:30:46.335Z,-1.50
2022-12-16T01:33:33.713Z,-1.50
2022-12-16T01:36:15.232Z,-1.50
2022-12-16T01:38:44.546Z,-1.10
2022-12-16T01:41:34.379Z,-0.80
2022-12-16T01:44:12.518Z,-0.50
2022-12-16T01:47:00.397Z,-0.20
2022-12-16T01:49:52.942Z,-0.20
2022-12-16T01:52:26.799Z,-0.30
2022-12-16T01:55:09.422Z,-0.50
2022-12-16T01:57:51.486Z,-0.50
2022-12-16T02:00:24.052Z,-0.40
2022-12-16T02:02:58.244Z,-0.20
2022-12-16T02:05:27.400Z,-0.30
2022-12-16T02:08:10.891Z,-0.30
2022-12-16T02:15:27.538Z,-0.80
2022-12-16T02:18:33.345Z,-0.80
2022-12-16T02:21:13.526Z,-0.90
2022-12-16T02:24:03.715Z,-1.00
2022-12-16T02:26:53.322Z,-1.10
2022-12-16T02:29:56.307Z,-1.10
2022-12-16T02:32:29.523Z,-1.00
2022-12-16T02:35:26.442Z,-1.00
2022-12-16T02:38:17.984Z,-1.10
2022-12-16T02:41:02.304Z,-1.30
2022-12-16T02:43:45.609Z,-1.40
2022-12-16T02:46:31.904Z,-1.40
2022-12-16T02:49:12.931Z,-1.40
2022-12-16T02:51:43.124Z,-1.50
2022-12-16T02:54:13.180Z,-1.50
2022-12-16T02:57:06.279Z,-1.50
2022-12-16T02:59:59.871Z,-1.60
2022-12-16T03:03:05.785Z,-1.60
2022-12-16T03:05:48.594Z,-1.50
2022-12-16T03:08:36.802Z,-1.40
2022-12-16T03:11:10.320Z,-1.10
2022-12-16T03:13:49.942Z,-0.80
2022-12-16T03:16:20.531Z,-0.80
2022-12-16T03:18:52.707Z,-0.70
2022-12-16T03:21:34.081Z,-0.70
2022-12-16T03:24:29.146Z,-0.60
2022-12-16T03:27:16.554Z,-0.50
2022-12-16T03:30:19.728Z,-0.30
2022-12-16T03:33:18.636Z,-0.30
2022-12-16T03:35:59.436Z,-0.50
2022-12-16T03:38:38.955Z,-0.20
2022-12-16T03:41:07.655Z,-0.10
2022-12-16T03:43:50.609Z,-0.20
2022-12-16T03:46:39.609Z,-0.30
2022-12-16T03:49:14.431Z,-0.20
2022-12-16T03:51:56.691Z,-0.30
2022-12-16T03:54:24.283Z,-0.50
2022-12-16T03:56:52.449Z,-0.20
2022-12-16T03:59:25.891Z,0.00
2022-12-16T04:02:14.878Z,0.20
2022-12-16T04:04:51.136Z,0.40
2022-12-16T04:07:22.011Z,0.60
2022-12-16T04:09:50.299Z,0.60
2022-12-16T04:12:39.289Z,0.60
2022-12-16T04:15:40.725Z,0.40
2022-12-16T04:18:35.480Z,0.20
2022-12-16T04:21:30.117Z,0.20
2022-12-16T04:24:20.707Z,0.20
2022-12-16T04:27:24.618Z,0.30
2022-12-16T04:30:15.835Z,0.10
2022-12-16T04:33:01.447Z,0.20
2022-12-16T04:36:24.732Z,0.40
2022-12-16T04:39:16.476Z,0.60
2022-12-16T04:42:13.290Z,0.90
2022-12-16T04:45:05.408Z,0.80
2022-12-16T04:47:57.062Z,0.80
2022-12-16T04:51:14.148Z,0.80
2022-12-16T04:53:59.640Z,0.90
2022-12-16T04:56:44.993Z,1.00
2022-12-16T04:59:39.820Z,0.90
2022-12-16T05:03:05.422Z,1.00
2022-12-16T05:05:56.628Z,1.00
2022-12-16T05:08:54.472Z,1.00
2022-12-16T05:11:40.399Z,1.00
2022-12-16T05:14:28.044Z,1.00
2022-12-16T05:17:13.586Z,1.00
2022-12-16T05:19:59.308Z,1.10
2022-12-16T05:23:17.086Z,0.80
2022-12-16T05:26:02.528Z,0.60
2022-12-16T05:32:36.134Z,0.90
2022-12-16T05:35:21.744Z,1.00
2022-12-16T05:38:14.088Z,0.60
2022-12-16T05:41:27.664Z,0.80
2022-12-16T05:44:14.136Z,0.90
2022-12-16T05:47:05.227Z,1.00
2022-12-16T05:49:58.148Z,1.00
2022-12-16T05:52:49.787Z,1.00
2022-12-16T05:55:37.424Z,0.90
2022-12-16T05:58:24.134Z,0.80
2022-12-16T06:01:15.171Z,0.80
2022-12-16T06:04:06.374Z,0.80
2022-12-16T06:06:53.058Z,0.80
2022-12-16T06:09:50.557Z,0.60
2022-12-16T06:12:49.656Z,0.40
2022-12-16T06:15:35.299Z,0.50
2022-12-16T06:18:46.707Z,0.50
2022-12-16T06:21:56.101Z,0.50
2022-12-16T06:24:57.180Z,0.60
2022-12-16T06:27:53.390Z,0.70
2022-12-16T06:30:57.468Z,0.60
2022-12-16T06:34:09.064Z,0.60
2022-12-16T06:37:25.676Z,0.60
2022-12-16T06:40:16.824Z,0.60
2022-12-16T06:43:16.273Z,0.80
2022-12-16T06:46:11.301Z,0.80
2022-12-16T06:49:41.743Z,0.90
2022-12-16T06:52:56.179Z,0.70
2022-12-16T06:55:41.746Z,0.50
2022-12-16T06:58:29.191Z,0.50
2022-12-16T07:01:14.722Z,0.40
2022-12-16T07:03:59.967Z,0.50
2022-12-16T07:06:45.458Z,0.50
2022-12-16T07:09:32.022Z,0.60
2022-12-16T07:12:17.359Z,0.50
2022-12-16T07:15:02.808Z,0.30
2022-12-16T07:17:48.170Z,0.30
2022-12-16T07:20:33.649Z,0.30
2022-12-16T07:23:19.995Z,0.30
2022-12-16T07:26:05.481Z,0.40
2022-12-16T07:28:50.959Z,0.60
2022-12-16T07:31:36.476Z,0.50
2022-12-16T07:34:21.852Z,0.60
2022-12-16T07:37:07.354Z,0.70
2022-12-16T07:39:55.201Z,0.40
2022-12-16T07:42:41.455Z,0.30
2022-12-16T07:45:27.987Z,0.30
2022-12-16T07:48:13.575Z,0.40
2022-12-16T07:50:59.506Z,0.50
2022-12-16T07:53:45.528Z,0.50
2022-12-16T07:56:31.012Z,0.50
2022-12-16T07:59:16.643Z,0.20
2022-12-16T08:02:02.053Z,0.20
2022-12-16T08:04:47.382Z,0.10
2022-12-16T08:07:32.935Z,0.20
2022-12-16T08:10:18.288Z,0.10
2022-12-16T08:13:03.771Z,0.10
2022-12-16T08:15:49.419Z,0.10
2022-12-16T08:18:35.180Z,-0.10
2022-12-16T08:21:20.641Z,0.20
2022-12-16T08:24:05.982Z,0.40
2022-12-16T08:26:59.017Z,0.40
2022-12-16T08:29:45.378Z,0.20
2022-12-16T08:32:32.356Z,0.20
2022-12-16T08:35:18.028Z,0.30
2022-12-16T08:38:07.578Z,0.40
2022-12-16T08:40:57.814Z,0.30
2022-12-16T08:43:43.477Z,0.50
2022-12-16T08:46:30.911Z,0.40
2022-12-16T08:52:06.999Z,0.30
2022-12-16T08:54:53.524Z,0.60
2022-12-16T08:57:39.503Z,0.60
2022-12-16T09:00:25.901Z,0.60
2022-12-16T09:03:13.977Z,0.70
2022-12-16T09:05:59.872Z,1.00
2022-12-16T09:08:45.493Z,1.10
2022-12-16T09:11:31.366Z,1.20
2022-12-16T09:14:16.911Z,1.00
2022-12-16T09:17:02.293Z,0.90
2022-12-16T09:19:48.059Z,1.10
2022-12-16T09:22:33.712Z,0.90
2022-12-16T09:25:20.260Z,0.70
2022-12-16T09:28:08.715Z,0.60
2022-12-16T09:30:54.020Z,0.70
2022-12-16T09:33:41.151Z,1.00
2022-12-16T09:36:26.660Z,0.70
2022-12-16T09:39:12.253Z,0.70
2022-12-16T09:42:03.536Z,0.80
2022-12-16T09:45:16.609Z,1.10
2022-12-16T09:48:42.921Z,1.10
2022-12-16T09:51:30.033Z,0.90
2022-12-16T09:54:18.542Z,1.20
2022-12-16T09:57:04.844Z,1.10
2022-12-16T09:59:55.595Z,1.10
2022-12-16T10:02:43.359Z,1.30
2022-12-16T10:05:31.937Z,1.30
2022-12-16T10:08:37.037Z,1.00
2022-12-16T10:11:39.125Z,1.30
2022-12-16T10:14:39.775Z,1.60
2022-12-16T10:17:36.665Z,1.40
2022-12-16T10:21:00.296Z,1.60
2022-12-16T10:23:56.367Z,1.40
2022-12-16T10:27:09.827Z,1.30
2022-12-16T10:30:00.421Z,1.20
2022-12-16T10:33:00.027Z,1.50
2022-12-16T10:35:47.443Z,1.50
2022-12-16T10:39:14.321Z,1.60
2022-12-16T10:42:03.732Z,1.70
2022-12-16T10:45:14.177Z,1.60
2022-12-16T10:47:59.395Z,1.50
2022-12-16T10:50:44.947Z,1.40
2022-12-16T10:53:34.168Z,1.60
2022-12-16T10:56:40.683Z,1.60
2022-12-16T10:59:27.349Z,1.70
2022-12-16T11:02:18.456Z,1.70
2022-12-16T11:05:04.972Z,1.30
2022-12-16T11:07:58.576Z,1.40
2022-12-16T11:11:03.247Z,1.70
2022-12-16T11:13:55.820Z,2.00
2022-12-16T11:16:46.689Z,1.80
2022-12-16T11:19:42.758Z,1.60
2022-12-16T11:22:42.167Z,1.60
2022-12-16T11:25:34.347Z,1.80
2022-12-16T11:28:33.201Z,1.90
2022-12-16T11:31:24.733Z,1.80
2022-12-16T11:34:12.299Z,1.60
2022-12-16T11:37:00.387Z,1.50
2022-12-16T11:39:48.022Z,1.50
2022-12-16T11:42:44.158Z,1.50
2022-12-16T11:45:38.759Z,1.70
2022-12-16T11:48:46.934Z,1.80
2022-12-16T11:51:34.612Z,1.90
2022-12-16T11:54:35.813Z,2.00
2022-12-16T11:57:25.644Z,1.90
2022-12-16T12:00:19.412Z,1.60
2022-12-16T12:03:23.203Z,1.50
2022-12-16T12:06:36.091Z,2.20
2022-12-16T12:09:35.960Z,2.70
2022-12-16T12:12:33.267Z,3.10
2022-12-16T12:16:15.707Z,3.50
2022-12-16T12:19:17.172Z,3.90
2022-12-16T12:22:11.705Z,3.70
2022-12-16T12:25:21.109Z,3.50
2022-12-16T12:28:10.654Z,3.40
2022-12-16T12:31:11.238Z,3.40
2022-12-16T12:34:11.909Z,3.30
2022-12-16T12:37:44.393Z,3.60
2022-12-16T12:40:35.909Z,3.60
2022-12-16T12:43:29.320Z,3.20
2022-12-16T12:46:29.393Z,3.90
2022-12-16T12:49:21.550Z,4.50
2022-12-16T12:52:20.039Z,4.90
2022-12-16T12:55:19.754Z,4.90
2022-12-16T12:58:07.718Z,4.60
2022-12-16T13:01:00.758Z,4.50
2022-12-16T13:03:58.373Z,4.40
2022-12-16T13:06:46.312Z,5.30
2022-12-16T13:10:03.952Z,6.40
2022-12-16T13:12:51.290Z,8.10
2022-12-16T13:15:55.291Z,8.60
2022-12-16T13:18:46.143Z,8.70
2022-12-16T13:21:57.157Z,8.80
2022-12-16T13:24:45.965Z,9.10
2022-12-16T13:27:35.627Z,8.80
2022-12-16T13:30:39.773Z,8.60
2022-12-16T13:33:40.095Z,7.60
2022-12-16T13:36:26.479Z,6.40
2022-12-16T13:39:15.029Z,5.60
2022-12-16T13:42:00.794Z,5.40
2022-12-16T13:45:01.599Z,5.70
2022-12-16T13:47:58.865Z,6.30
2022-12-16T13:51:04.786Z,7.00
2022-12-16T13:53:55.268Z,6.80
2022-12-16T13:57:05.083Z,6.50
2022-12-16T13:59:51.244Z,5.60
2022-12-16T14:02:54.503Z,5.20
2022-12-16T14:05:55.895Z,4.50
2022-12-16T14:08:44.044Z,3.80
2022-12-16T14:11:40.099Z,3.40
2022-12-16T14:14:41.020Z,3.40
2022-12-16T14:17:56.760Z,3.10
2022-12-16T14:20:58.544Z,2.90
2022-12-16T14:23:59.476Z,2.80
2022-12-16T14:26:45.917Z,2.90
2022-12-16T14:29:36.153Z,2.90
2022-12-16T14:32:54.958Z,2.90
2022-12-16T14:35:43.478Z,2.70
2022-12-16T14:38:42.223Z,2.60
2022-12-16T14:41:43.832Z,2.50
2022-12-16T14:44:47.028Z,2.40
2022-12-16T14:47:40.858Z,2.40
2022-12-16T14:50:47.241Z,2.40
2022-12-16T14:53:42.305Z,2.20
2022-12-16T14:56:34.692Z,2.30
2022-12-16T14:59:36.980Z,2.20
2022-12-16T15:02:49.655Z,2.20
2022-12-16T15:05:35.913Z,1.80
2022-12-16T15:08:21.523Z,1.80
2022-12-16T15:11:07.042Z,1.90
2022-12-16T15:13:57.779Z,1.70
2022-12-16T15:16:52.468Z,1.60
2022-12-16T15:19:41.302Z,1.40
2022-12-16T15:22:34.203Z,1.30
2022-12-16T15:25:20.179Z,1.30
2022-12-16T15:28:15.266Z,1.30
2022-12-16T15:31:02.874Z,1.20
2022-12-16T15:33:52.000Z,1.20
2022-12-16T15:36:52.728Z,0.90
2022-12-16T15:39:49.947Z,1.00
2022-12-16T15:42:46.636Z,0.90
2022-12-16T15:45:45.605Z,0.70
2022-12-16T15:48:41.568Z,0.70
2022-12-16T15:51:59.745Z,0.60
2022-12-16T15:54:45.256Z,0.50
2022-12-16T15:57:47.621Z,0.60
2022-12-16T16:00:44.566Z,0.30
2022-12-16T16:03:39.587Z,0.30
2022-12-16T16:06:33.184Z,0.20
2022-12-16T16:09:20.173Z,0.10
2022-12-16T16:12:05.559Z,0.10
2022-12-16T16:14:51.128Z,0.20
2022-12-16T16:17:40.478Z,0.30
2022-12-16T16:20:31.483Z,0.30
2022-12-16T16:23:17.392Z,0.30
2022-12-16T16:26:04.143Z,0.30
2022-12-16T16:28:50.043Z,0.30
2022-12-16T16:31:35.571Z,0.30
2022-12-16T16:34:21.128Z,0.30
2022-12-16T16:37:12.831Z,0.00
2022-12-16T16:39:58.876Z,-0.10
2022-12-16T16:42:44.244Z,-0.20
2022-12-16T16:45:29.961Z,-0.10
2022-12-16T16:48:28.904Z,-0.10
2022-12-16T16:51:16.333Z,-0.10
2022-12-16T16:54:06.269Z,-0.10
2022-12-16T16:56:53.655Z,-0.10
2022-12-16T16:59:43.076Z,-0.10
2022-12-16T17:02:41.417Z,-0.20
2022-12-16T17:05:31.216Z,0.00
2022-12-16T17:08:16.697Z,0.00
2022-12-16T17:11:04.049Z,-0.10
2022-12-16T17:13:49.276Z,-0.10
2022-12-16T17:16:34.785Z,-0.10
2022-12-16T17:19:21.568Z,-0.20
2022-12-16T17:22:07.105Z,-0.40
2022-12-16T17:24:54.292Z,-0.30
2022-12-16T17:27:43.142Z,-0.30
2022-12-16T17:30:39.735Z,-0.40
2022-12-16T17:33:28.816Z,-0.60
2022-12-16T17:36:14.208Z,-0.70
2022-12-16T17:39:01.490Z,-0.80
2022-12-16T17:41:48.810Z,-1.10
2022-12-16T17:44:34.949Z,-1.20
2022-12-16T17:47:20.715Z,-1.10
2022-12-16T17:50:06.270Z,-1.10
2022-12-16T17:52:52.814Z,-1.00
2022-12-16T17:55:38.122Z,-1.10
2022-12-16T17:58:23.536Z,-1.10
2022-12-16T18:01:09.106Z,-1.10
2022-12-16T18:03:54.656Z,-1.20
2022-12-16T18:06:40.436Z,-1.20
2022-12-16T18:09:25.976Z,-1.20
2022-12-16T18:12:11.678Z,-1.00
2022-12-16T18:14:57.032Z,-1.10
2022-12-16T18:17:42.504Z,-1.50
2022-12-16T18:20:28.359Z,-1.40
2022-12-16T18:23:13.831Z,-1.30
2022-12-16T18:25:59.184Z,-1.30
2022-12-16T18:28:45.048Z,-1.30
2022-12-16T18:31:30.670Z,-1.50
2022-12-16T18:34:16.333Z,-1.60
2022-12-16T18:37:21.632Z,-1.90
2022-12-16T18:40:06.864Z,-1.90
2022-12-16T18:42:51.967Z,-1.90
2022-12-16T18:45:37.442Z,-1.90
2022-12-16T18:48:23.381Z,-1.90
2022-12-16T18:51:16.925Z,-1.90
2022-12-16T18:54:02.339Z,-1.80
2022-12-16T18:56:48.299Z,-1.80
2022-12-16T18:59:34.476Z,-1.80
2022-12-16T19:02:20.008Z,-2.20
2022-12-16T19:05:05.655Z,-2.20
2022-12-16T19:07:51.040Z,-2.10
2022-12-16T19:10:36.604Z,-2.10
2022-12-16T19:13:21.907Z,-2.00
2022-12-16T19:16:16.722Z,-2.00
2022-12-16T19:19:02.283Z,-2.00
2022-12-16T19:21:52.365Z,-1.90
2022-12-16T19:24:43.478Z,-1.80
2022-12-16T19:27:29.130Z,-1.80
2022-12-16T19:30:14.562Z,-1.90
2022-12-16T19:33:01.069Z,-2.10
2022-12-16T19:35:46.558Z,-2.10
2022-12-16T19:38:32.897Z,-2.30
2022-12-16T19:41:18.420Z,-2.30
2022-12-16T19:44:06.489Z,-2.10
2022-12-16T19:46:53.352Z,-2.00
2022-12-16T19:49:44.383Z,-2.20
2022-12-16T19:52:30.673Z,-2.30
2022-12-16T19:58:21.694Z,-2.20
2022-12-16T20:01:07.319Z,-2.20
2022-12-16T20:03:55.223Z,-2.20
2022-12-16T20:06:42.359Z,-2.20
2022-12-16T20:09:28.106Z,-2.20
2022-12-16T20:12:13.575Z,-2.20
2022-12-16T20:14:59.096Z,-2.00
2022-12-16T20:17:44.577Z,-2.10
2022-12-16T20:20:29.967Z,-2.20
2022-12-16T20:23:15.893Z,-2.40
2022-12-16T20:26:01.728Z,-2.50
2022-12-16T20:28:47.188Z,-2.50
2022-12-16T20:31:43.896Z,-2.40
2022-12-16T20:34:29.284Z,-2.30
2022-12-16T20:37:15.044Z,-2.40
2022-12-16T20:40:00.495Z,-2.40
2022-12-16T20:42:46.507Z,-2.40
2022-12-16T20:45:31.952Z,-2.20
2022-12-16T20:48:17.330Z,-2.30
2022-12-16T20:51:02.803Z,-2.40
2022-12-16T20:53:48.198Z,-2.50
2022-12-16T20:56:33.667Z,-2.40
2022-12-16T20:59:19.026Z,-2.30
2022-12-16T21:05:09.706Z,-2.40
2022-12-16T21:07:55.084Z,-2.30
2022-12-16T21:10:42.053Z,-2.20
2022-12-16T21:13:29.623Z,-2.20
2022-12-16T21:16:19.240Z,-2.20
2022-12-16T21:19:05.598Z,-2.60
2022-12-16T21:21:51.189Z,-2.70
2022-12-16T21:24:37.280Z,-2.90
2022-12-16T21:27:23.175Z,-3.10
2022-12-16T21:30:08.654Z,-2.90
2022-12-16T21:32:54.961Z,-2.80
2022-12-16T21:35:42.484Z,-2.90
2022-12-16T21:38:29.517Z,-2.90
2022-12-16T21:41:15.271Z,-2.80
2022-12-16T21:44:00.921Z,-2.70
2022-12-16T21:46:46.203Z,-2.80
2022-12-16T21:49:31.684Z,-2.70
2022-12-16T21:52:17.290Z,-3.00
2022-12-16T21:55:02.546Z,-2.90
2022-12-16T21:57:48.074Z,-3.00
2022-12-16T22:00:34.084Z,-3.30
2022-12-16T22:03:19.563Z,-3.10
2022-12-16T22:06:05.125Z,-2.90
2022-12-16T22:08:51.740Z,-2.90
2022-12-16T22:11:37.157Z,-3.00
2022-12-16T22:14:23.055Z,-2.90
2022-12-16T22:17:08.483Z,-2.90
2022-12-16T22:19:56.140Z,-2.90
2022-12-16T22:22:42.474Z,-2.80
2022-12-16T22:25:28.911Z,-2.80
2022-12-16T22:28:14.593Z,-2.90
2022-12-16T22:30:59.767Z,-2.90
2022-12-16T22:33:45.087Z,-2.80
2022-12-16T22:36:32.685Z,-2.90
2022-12-16T22:39:18.007Z,-3.30
2022-12-16T22:42:03.424Z,-3.50
2022-12-16T22:44:49.079Z,-3.60
2022-12-16T22:47:34.586Z,-3.70
2022-12-16T22:50:20.161Z,-3.40
2022-12-16T22:53:05.454Z,-3.20
2022-12-16T22:55:50.975Z,-3.20
2022-12-16T22:58:37.761Z,-3.60
2022-12-16T23:01:26.606Z,-3.90
2022-12-16T23:04:11.953Z,-3.60
2022-12-16T23:06:57.553Z,-3.40
2022-12-16T23:09:53.505Z,-3.40
2022-12-16T23:12:39.489Z,-3.40
2022-12-16T23:15:36.398Z,-3.30
2022-12-16T23:18:21.597Z,-3.20
2022-12-16T23:21:09.649Z,-3.10
2022-12-16T23:27:10.431Z,-3.40
2022-12-16T23:32:30.237Z,-2.20
2022-12-16T23:32:30.682Z,-3.40
2022-12-16T23:33:00.903Z,-3.20
2022-12-16T23:35:46.265Z,-3.10
2022-12-16T23:38:31.884Z,-3.10
2022-12-16T23:41:18.308Z,-3.50
2022-12-16T23:44:04.014Z,-3.60
2022-12-16T23:46:49.720Z,-3.90
2022-12-16T23:49:35.186Z,-4.00
2022-12-16T23:52:40.586Z,-4.10
2022-12-16T23:55:26.072Z,-3.80
2022-12-16T23:58:18.757Z,-3.50
